Furqlus, Syria
Current Conditions -  °F | °C
As of 5:00 PM on Thursday 30 Oct 2014 (Local Time) from OSDI Reporting Station
Scattered Clouds Scattered Clouds  
Wind Chill: 75°   Ceiling: Unl
Heat Index: 75°   Visibility: 6mi
Dew Point: 39°   Wind: 17mph
Humidity: 27%   Direction: 220°SW
Pressure: 29.91"   Gusts: NA
Location:  34.6°N, 37.08°E
Report Text: OSDI 301400Z 22015KT 9999 SCT030 24/04 Q1013
Loading
Personal Weather Stations






























Interactive Weather Map New forecast layout! Learn more

10-Day Weather Forecast

Advertisements
Track Severe Weather on mobile